sensor_id;sensor_type;location;lat;lon;timestamp;pressure;altitude;pressure_sealevel;temperature;humidity
29569;BME280;16501;51.462;14.346;2023-11-22T00:01:34;100873.81;;;-0.18;100.00
29569;BME280;16501;51.462;14.346;2023-11-22T00:03:59;100859.53;;;-0.34;100.00
29569;BME280;16501;51.462;14.346;2023-11-22T00:06:25;100886.72;;;-0.33;100.00
29569;BME280;16501;51.462;14.346;2023-11-22T00:08:52;100878.78;;;-0.42;100.00
29569;BME280;16501;51.462;14.346;2023-11-22T00:11:17;100832.94;;;-0.68;100.00
29569;BME280;16501;51.462;14.346;2023-11-22T00:13:42;100866.56;;;-0.44;100.00
29569;BME280;16501;51.462;14.346;2023-11-22T00:16:08;100875.63;;;-0.40;100.00
29569;BME280;16501;51.462;14.346;2023-11-22T00:18:34;100891.81;;;-0.35;100.00
29569;BME280;16501;51.462;14.346;2023-11-22T00:21:02;100871.25;;;-0.48;100.00
29569;BME280;16501;51.462;14.346;2023-11-22T00:23:27;100885.06;;;-0.41;100.00
29569;BME280;16501;51.462;14.346;2023-11-22T00:25:55;100877.91;;;-0.49;100.00
29569;BME280;16501;51.462;14.346;2023-11-22T00:28:22;100888.59;;;-0.44;100.00
29569;BME280;16501;51.462;14.346;2023-11-22T00:30:48;100851.06;;;-0.63;100.00
29569;BME280;16501;51.462;14.346;2023-11-22T00:33:13;100865.38;;;-0.43;100.00
29569;BME280;16501;51.462;14.346;2023-11-22T00:35:39;100869.66;;;-0.49;100.00
29569;BME280;16501;51.462;14.346;2023-11-22T00:38:04;100863.00;;;-0.48;100.00
29569;BME280;16501;51.462;14.346;2023-11-22T00:40:30;100851.53;;;-0.54;100.00
29569;BME280;16501;51.462;14.346;2023-11-22T00:42:55;100877.63;;;-0.37;100.00
29569;BME280;16501;51.462;14.346;2023-11-22T00:45:21;100891.53;;;-0.23;100.00
29569;BME280;16501;51.462;14.346;2023-11-22T00:47:46;100883.47;;;-0.46;100.00
29569;BME280;16501;51.462;14.346;2023-11-22T00:50:12;100896.50;;;-0.39;100.00
29569;BME280;16501;51.462;14.346;2023-11-22T00:52:38;100892.53;;;-0.45;100.00
29569;BME280;16501;51.462;14.346;2023-11-22T00:55:04;100869.31;;;-0.89;100.00
29569;BME280;16501;51.462;14.346;2023-11-22T00:57:30;100875.53;;;-0.51;100.00
29569;BME280;16501;51.462;14.346;2023-11-22T00:59:55;100891.00;;;-0.39;100.00
29569;BME280;16501;51.462;14.346;2023-11-22T01:02:21;100881.41;;;-0.56;100.00
29569;BME280;16501;51.462;14.346;2023-11-22T01:04:46;100894.00;;;-0.59;100.00
29569;BME280;16501;51.462;14.346;2023-11-22T01:07:11;100910.16;;;-0.53;100.00
29569;BME280;16501;51.462;14.346;2023-11-22T01:09:37;100902.03;;;-0.80;100.00
29569;BME280;16501;51.462;14.346;2023-11-22T01:12:02;100914.84;;;-0.58;100.00
29569;BME280;16501;51.462;14.346;2023-11-22T01:14:28;100897.00;;;-0.74;100.00
29569;BME280;16501;51.462;14.346;2023-11-22T01:16:53;100928.72;;;-0.47;100.00
29569;BME280;16501;51.462;14.346;2023-11-22T01:19:22;100923.56;;;-0.52;100.00
29569;BME280;16501;51.462;14.346;2023-11-22T01:21:47;100926.69;;;-0.53;100.00
29569;BME280;16501;51.462;14.346;2023-11-22T01:24:12;100927.16;;;-0.44;100.00
29569;BME280;16501;51.462;14.346;2023-11-22T01:26:38;100928.69;;;-0.50;100.00
29569;BME280;16501;51.462;14.346;2023-11-22T01:29:03;100954.59;;;-0.59;100.00
29569;BME280;16501;51.462;14.346;2023-11-22T01:31:29;100951.78;;;-0.66;100.00
29569;BME280;16501;51.462;14.346;2023-11-22T01:33:54;100955.63;;;-0.74;100.00
29569;BME280;16501;51.462;14.346;2023-11-22T01:36:20;100962.28;;;-0.75;100.00
29569;BME280;16501;51.462;14.346;2023-11-22T01:38:45;100966.72;;;-0.67;100.00
29569;BME280;16501;51.462;14.346;2023-11-22T01:41:13;100975.00;;;-0.63;100.00
29569;BME280;16501;51.462;14.346;2023-11-22T01:43:39;100983.69;;;-0.58;100.00
29569;BME280;16501;51.462;14.346;2023-11-22T01:46:09;100936.94;;;-0.95;100.00
29569;BME280;16501;51.462;14.346;2023-11-22T01:48:35;100958.47;;;-0.63;100.00
29569;BME280;16501;51.462;14.346;2023-11-22T01:51:02;100978.06;;;-0.72;100.00
29569;BME280;16501;51.462;14.346;2023-11-22T01:53:27;100985.97;;;-0.67;100.00
29569;BME280;16501;51.462;14.346;2023-11-22T01:55:53;100941.44;;;-1.14;100.00
29569;BME280;16501;51.462;14.346;2023-11-22T01:58:20;100996.16;;;-0.74;100.00
29569;BME280;16501;51.462;14.346;2023-11-22T02:00:49;100993.81;;;-0.72;100.00
29569;BME280;16501;51.462;14.346;2023-11-22T02:03:15;100986.72;;;-0.70;100.00
29569;BME280;16501;51.462;14.346;2023-11-22T02:05:42;100983.53;;;-0.76;100.00
29569;BME280;16501;51.462;14.346;2023-11-22T02:08:09;100988.31;;;-0.69;100.00
29569;BME280;16501;51.462;14.346;2023-11-22T02:10:34;100987.34;;;-0.87;100.00
29569;BME280;16501;51.462;14.346;2023-11-22T02:13:01;100987.78;;;-0.85;100.00
29569;BME280;16501;51.462;14.346;2023-11-22T02:15:29;100979.06;;;-0.87;100.00
29569;BME280;16501;51.462;14.346;2023-11-22T02:17:55;100968.44;;;-0.89;100.00
29569;BME280;16501;51.462;14.346;2023-11-22T02:20:20;100991.09;;;-0.69;100.00
29569;BME280;16501;51.462;14.346;2023-11-22T02:22:47;100993.03;;;-0.73;100.00
29569;BME280;16501;51.462;14.346;2023-11-22T02:25:12;100972.13;;;-0.78;100.00
29569;BME280;16501;51.462;14.346;2023-11-22T02:27:37;100972.53;;;-0.76;100.00
29569;BME280;16501;51.462;14.346;2023-11-22T02:30:03;100960.66;;;-0.83;100.00
29569;BME280;16501;51.462;14.346;2023-11-22T02:32:31;100967.75;;;-0.79;100.00
29569;BME280;16501;51.462;14.346;2023-11-22T02:34:56;100976.81;;;-0.82;100.00
29569;BME280;16501;51.462;14.346;2023-11-22T02:37:21;100963.78;;;-0.85;100.00
29569;BME280;16501;51.462;14.346;2023-11-22T02:40:16;100955.53;;;-0.85;100.00
29569;BME280;16501;51.462;14.346;2023-11-22T02:42:43;100999.34;;;-0.69;100.00
29569;BME280;16501;51.462;14.346;2023-11-22T02:45:08;100973.81;;;-1.00;100.00
29569;BME280;16501;51.462;14.346;2023-11-22T02:47:34;101004.78;;;-0.76;100.00
29569;BME280;16501;51.462;14.346;2023-11-22T02:49:59;100983.31;;;-0.97;100.00
29569;BME280;16501;51.462;14.346;2023-11-22T02:52:24;100993.63;;;-0.90;100.00
29569;BME280;16501;51.462;14.346;2023-11-22T02:54:50;100998.81;;;-0.82;100.00
29569;BME280;16501;51.462;14.346;2023-11-22T02:57:15;100996.91;;;-0.78;100.00
29569;BME280;16501;51.462;14.346;2023-11-22T02:59:44;100988.44;;;-0.96;100.00
29569;BME280;16501;51.462;14.346;2023-11-22T03:02:10;101016.13;;;-0.81;100.00
29569;BME280;16501;51.462;14.346;2023-11-22T03:04:36;101000.31;;;-0.88;100.00
29569;BME280;16501;51.462;14.346;2023-11-22T03:07:02;101009.72;;;-0.89;100.00
29569;BME280;16501;51.462;14.346;2023-11-22T03:09:27;101020.94;;;-0.74;100.00
29569;BME280;16501;51.462;14.346;2023-11-22T03:11:54;101020.56;;;-0.73;100.00
29569;BME280;16501;51.462;14.346;2023-11-22T03:14:19;101000.72;;;-0.86;100.00
29569;BME280;16501;51.462;14.346;2023-11-22T03:16:45;101028.38;;;-0.75;100.00
29569;BME280;16501;51.462;14.346;2023-11-22T03:19:10;101024.44;;;-0.78;100.00
29569;BME280;16501;51.462;14.346;2023-11-22T03:21:38;101024.53;;;-0.67;100.00
29569;BME280;16501;51.462;14.346;2023-11-22T03:24:03;101039.50;;;-0.68;100.00
29569;BME280;16501;51.462;14.346;2023-11-22T03:26:32;101034.78;;;-0.67;100.00
29569;BME280;16501;51.462;14.346;2023-11-22T03:28:57;101051.34;;;-0.64;100.00
29569;BME280;16501;51.462;14.346;2023-11-22T03:31:22;101048.13;;;-0.69;100.00
29569;BME280;16501;51.462;14.346;2023-11-22T03:33:47;101063.44;;;-0.72;100.00
29569;BME280;16501;51.462;14.346;2023-11-22T03:36:13;101045.13;;;-0.91;100.00
29569;BME280;16501;51.462;14.346;2023-11-22T03:38:39;101071.16;;;-0.85;100.00
29569;BME280;16501;51.462;14.346;2023-11-22T03:41:05;101081.44;;;-0.82;100.00
29569;BME280;16501;51.462;14.346;2023-11-22T03:43:30;101090.91;;;-0.79;100.00
29569;BME280;16501;51.462;14.346;2023-11-22T03:45:55;101063.16;;;-1.24;100.00
29569;BME280;16501;51.462;14.346;2023-11-22T03:48:21;101076.00;;;-1.05;100.00
29569;BME280;16501;51.462;14.346;2023-11-22T03:50:48;101097.06;;;-0.89;100.00
29569;BME280;16501;51.462;14.346;2023-11-22T03:53:13;101086.19;;;-1.09;100.00
29569;BME280;16501;51.462;14.346;2023-11-22T03:55:39;101100.03;;;-1.02;100.00
29569;BME280;16501;51.462;14.346;2023-11-22T03:58:04;101096.50;;;-1.02;100.00
29569;BME280;16501;51.462;14.346;2023-11-22T04:00:29;101106.72;;;-1.03;100.00
29569;BME280;16501;51.462;14.346;2023-11-22T04:02:54;101117.03;;;-0.96;100.00
29569;BME280;16501;51.462;14.346;2023-11-22T04:05:22;101104.81;;;-0.99;100.00
29569;BME280;16501;51.462;14.346;2023-11-22T04:07:47;101129.84;;;-1.07;100.00
29569;BME280;16501;51.462;14.346;2023-11-22T04:10:12;101118.53;;;-1.02;100.00
29569;BME280;16501;51.462;14.346;2023-11-22T04:12:38;101156.06;;;-0.90;100.00
29569;BME280;16501;51.462;14.346;2023-11-22T04:15:04;101157.53;;;-0.97;100.00
29569;BME280;16501;51.462;14.346;2023-11-22T04:17:33;101147.91;;;-1.10;100.00
29569;BME280;16501;51.462;14.346;2023-11-22T04:19:58;101165.59;;;-1.11;100.00
29569;BME280;16501;51.462;14.346;2023-11-22T04:22:24;101116.13;;;-1.34;100.00
29569;BME280;16501;51.462;14.346;2023-11-22T04:24:49;101150.44;;;-1.24;100.00
29569;BME280;16501;51.462;14.346;2023-11-22T04:27:14;101184.53;;;-1.06;100.00
29569;BME280;16501;51.462;14.346;2023-11-22T04:29:40;101185.16;;;-1.16;100.00
29569;BME280;16501;51.462;14.346;2023-11-22T04:32:05;101154.50;;;-1.41;100.00
29569;BME280;16501;51.462;14.346;2023-11-22T04:34:30;101184.91;;;-1.07;100.00
29569;BME280;16501;51.462;14.346;2023-11-22T04:36:56;101171.31;;;-1.23;100.00
29569;BME280;16501;51.462;14.346;2023-11-22T04:39:21;101172.56;;;-1.17;100.00
29569;BME280;16501;51.462;14.346;2023-11-22T04:41:46;101201.06;;;-1.06;100.00
29569;BME280;16501;51.462;14.346;2023-11-22T04:44:12;101197.06;;;-1.08;100.00
29569;BME280;16501;51.462;14.346;2023-11-22T04:46:37;101176.13;;;-1.17;100.00
29569;BME280;16501;51.462;14.346;2023-11-22T04:49:02;101176.97;;;-1.39;100.00
29569;BME280;16501;51.462;14.346;2023-11-22T04:51:27;101195.19;;;-1.27;100.00
29569;BME280;16501;51.462;14.346;2023-11-22T04:53:54;101184.81;;;-1.38;100.00
29569;BME280;16501;51.462;14.346;2023-11-22T04:56:19;101213.75;;;-1.47;100.00
29569;BME280;16501;51.462;14.346;2023-11-22T04:58:44;101215.78;;;-1.44;100.00
29569;BME280;16501;51.462;14.346;2023-11-22T05:01:10;101215.34;;;-1.23;100.00
29569;BME280;16501;51.462;14.346;2023-11-22T05:03:35;101213.63;;;-1.31;100.00
29569;BME280;16501;51.462;14.346;2023-11-22T05:06:00;101181.28;;;-1.38;100.00
29569;BME280;16501;51.462;14.346;2023-11-22T05:08:25;101208.59;;;-1.26;100.00
29569;BME280;16501;51.462;14.346;2023-11-22T05:10:52;101210.28;;;-1.44;100.00
29569;BME280;16501;51.462;14.346;2023-11-22T05:13:17;101201.09;;;-1.52;100.00
29569;BME280;16501;51.462;14.346;2023-11-22T05:15:42;101230.75;;;-1.42;100.00
29569;BME280;16501;51.462;14.346;2023-11-22T05:18:08;101237.28;;;-1.50;100.00
29569;BME280;16501;51.462;14.346;2023-11-22T05:20:33;101229.50;;;-1.67;100.00
29569;BME280;16501;51.462;14.346;2023-11-22T05:22:58;101254.66;;;-1.46;100.00
29569;BME280;16501;51.462;14.346;2023-11-22T05:25:24;101259.72;;;-1.48;100.00
29569;BME280;16501;51.462;14.346;2023-11-22T05:27:49;101249.88;;;-1.49;100.00
29569;BME280;16501;51.462;14.346;2023-11-22T05:30:15;101273.59;;;-1.41;100.00
29569;BME280;16501;51.462;14.346;2023-11-22T05:32:41;101268.16;;;-1.37;100.00
29569;BME280;16501;51.462;14.346;2023-11-22T05:35:07;101261.91;;;-1.57;100.00
29569;BME280;16501;51.462;14.346;2023-11-22T05:37:42;101267.69;;;-1.43;100.00
29569;BME280;16501;51.462;14.346;2023-11-22T05:40:08;101260.16;;;-1.46;100.00
29569;BME280;16501;51.462;14.346;2023-11-22T05:42:35;101257.94;;;-1.37;100.00
29569;BME280;16501;51.462;14.346;2023-11-22T05:45:01;101261.78;;;-1.41;100.00
29569;BME280;16501;51.462;14.346;2023-11-22T05:47:26;101275.94;;;-1.43;100.00
29569;BME280;16501;51.462;14.346;2023-11-22T05:49:52;101260.31;;;-1.58;100.00
29569;BME280;16501;51.462;14.346;2023-11-22T05:52:17;101240.63;;;-1.60;100.00
29569;BME280;16501;51.462;14.346;2023-11-22T05:54:43;101253.22;;;-1.59;100.00
29569;BME280;16501;51.462;14.346;2023-11-22T05:57:08;101253.59;;;-1.61;100.00
29569;BME280;16501;51.462;14.346;2023-11-22T05:59:36;101268.72;;;-1.51;100.00
29569;BME280;16501;51.462;14.346;2023-11-22T06:02:01;101238.63;;;-1.63;100.00
29569;BME280;16501;51.462;14.346;2023-11-22T06:04:26;101245.50;;;-1.73;100.00
29569;BME280;16501;51.462;14.346;2023-11-22T06:06:51;101260.78;;;-1.76;100.00
29569;BME280;16501;51.462;14.346;2023-11-22T06:09:17;101250.41;;;-1.63;100.00
29569;BME280;16501;51.462;14.346;2023-11-22T06:11:42;101246.81;;;-1.67;100.00
29569;BME280;16501;51.462;14.346;2023-11-22T06:14:07;101267.03;;;-1.56;100.00
29569;BME280;16501;51.462;14.346;2023-11-22T06:16:33;101248.56;;;-1.78;100.00
29569;BME280;16501;51.462;14.346;2023-11-22T06:19:03;101258.09;;;-1.72;100.00
29569;BME280;16501;51.462;14.346;2023-11-22T06:21:28;101269.31;;;-1.61;100.00
29569;BME280;16501;51.462;14.346;2023-11-22T06:23:54;101284.94;;;-1.65;100.00
29569;BME280;16501;51.462;14.346;2023-11-22T06:26:22;101310.84;;;-1.66;100.00
29569;BME280;16501;51.462;14.346;2023-11-22T06:28:48;101317.94;;;-1.65;100.00
29569;BME280;16501;51.462;14.346;2023-11-22T06:31:14;101307.06;;;-1.78;100.00
29569;BME280;16501;51.462;14.346;2023-11-22T06:33:39;101312.31;;;-1.92;100.00
29569;BME280;16501;51.462;14.346;2023-11-22T06:36:08;101313.47;;;-1.93;100.00
29569;BME280;16501;51.462;14.346;2023-11-22T06:38:36;101337.53;;;-1.86;100.00
29569;BME280;16501;51.462;14.346;2023-11-22T06:41:01;101345.72;;;-1.90;100.00
29569;BME280;16501;51.462;14.346;2023-11-22T06:43:27;101349.00;;;-1.84;100.00
29569;BME280;16501;51.462;14.346;2023-11-22T06:45:52;101324.44;;;-2.13;100.00
29569;BME280;16501;51.462;14.346;2023-11-22T06:48:17;101346.59;;;-1.86;100.00
29569;BME280;16501;51.462;14.346;2023-11-22T06:50:43;101351.81;;;-1.81;100.00
29569;BME280;16501;51.462;14.346;2023-11-22T06:53:10;101354.72;;;-1.74;100.00
29569;BME280;16501;51.462;14.346;2023-11-22T06:55:36;101320.09;;;-2.14;100.00
29569;BME280;16501;51.462;14.346;2023-11-22T06:58:03;101358.09;;;-2.00;100.00
29569;BME280;16501;51.462;14.346;2023-11-22T07:00:28;101375.94;;;-2.10;100.00
29569;BME280;16501;51.462;14.346;2023-11-22T07:02:54;101386.91;;;-2.10;100.00
29569;BME280;16501;51.462;14.346;2023-11-22T07:05:19;101368.25;;;-2.20;100.00
29569;BME280;16501;51.462;14.346;2023-11-22T07:07:53;101384.59;;;-2.08;100.00
29569;BME280;16501;51.462;14.346;2023-11-22T07:10:20;101371.31;;;-2.05;100.00
29569;BME280;16501;51.462;14.346;2023-11-22T07:12:46;101370.44;;;-2.10;100.00
29569;BME280;16501;51.462;14.346;2023-11-22T07:15:13;101384.13;;;-1.94;100.00
29569;BME280;16501;51.462;14.346;2023-11-22T07:17:39;101369.31;;;-1.89;100.00
29569;BME280;16501;51.462;14.346;2023-11-22T07:20:05;101356.06;;;-1.83;100.00
29569;BME280;16501;51.462;14.346;2023-11-22T07:22:34;101356.44;;;-1.85;100.00
29569;BME280;16501;51.462;14.346;2023-11-22T07:25:00;101346.28;;;-2.00;100.00
29569;BME280;16501;51.462;14.346;2023-11-22T07:27:27;101347.88;;;-1.99;100.00
29569;BME280;16501;51.462;14.346;2023-11-22T07:29:52;101355.06;;;-1.95;100.00
29569;BME280;16501;51.462;14.346;2023-11-22T07:32:17;101330.94;;;-2.21;100.00
29569;BME280;16501;51.462;14.346;2023-11-22T07:34:45;101355.84;;;-1.94;100.00
29569;BME280;16501;51.462;14.346;2023-11-22T07:37:10;101354.72;;;-1.93;100.00
29569;BME280;16501;51.462;14.346;2023-11-22T07:39:36;101337.31;;;-1.97;100.00
29569;BME280;16501;51.462;14.346;2023-11-22T07:42:03;101359.53;;;-1.86;100.00
29569;BME280;16501;51.462;14.346;2023-11-22T07:44:28;101353.53;;;-1.92;100.00
29569;BME280;16501;51.462;14.346;2023-11-22T07:46:57;101376.13;;;-1.83;100.00
29569;BME280;16501;51.462;14.346;2023-11-22T07:49:24;101335.88;;;-2.11;100.00
29569;BME280;16501;51.462;14.346;2023-11-22T07:51:50;101404.28;;;-1.70;100.00
29569;BME280;16501;51.462;14.346;2023-11-22T07:54:18;101407.31;;;-1.75;100.00
29569;BME280;16501;51.462;14.346;2023-11-22T07:56:44;101395.53;;;-1.76;100.00
29569;BME280;16501;51.462;14.346;2023-11-22T07:59:10;101405.13;;;-1.85;100.00
29569;BME280;16501;51.462;14.346;2023-11-22T08:01:38;101419.78;;;-1.97;100.00
29569;BME280;16501;51.462;14.346;2023-11-22T08:04:04;101434.56;;;-1.86;100.00
29569;BME280;16501;51.462;14.346;2023-11-22T08:06:34;101444.19;;;-1.76;100.00
29569;BME280;16501;51.462;14.346;2023-11-22T08:09:00;101449.47;;;-1.87;100.00
29569;BME280;16501;51.462;14.346;2023-11-22T08:11:29;101449.78;;;-1.73;100.00
29569;BME280;16501;51.462;14.346;2023-11-22T08:13:54;101410.66;;;-2.01;100.00
29569;BME280;16501;51.462;14.346;2023-11-22T08:16:23;101456.44;;;-1.74;100.00
29569;BME280;16501;51.462;14.346;2023-11-22T08:18:48;101464.53;;;-1.81;100.00
29569;BME280;16501;51.462;14.346;2023-11-22T08:21:13;101442.13;;;-1.99;100.00
29569;BME280;16501;51.462;14.346;2023-11-22T08:23:39;101437.66;;;-2.07;100.00
29569;BME280;16501;51.462;14.346;2023-11-22T08:26:04;101469.25;;;-1.97;100.00
29569;BME280;16501;51.462;14.346;2023-11-22T08:28:30;101435.41;;;-2.01;100.00
29569;BME280;16501;51.462;14.346;2023-11-22T08:30:56;101459.16;;;-1.93;100.00
29569;BME280;16501;51.462;14.346;2023-11-22T08:33:21;101465.38;;;-1.96;100.00
29569;BME280;16501;51.462;14.346;2023-11-22T08:35:47;101457.13;;;-1.96;100.00
29569;BME280;16501;51.462;14.346;2023-11-22T08:38:16;101449.84;;;-2.04;100.00
29569;BME280;16501;51.462;14.346;2023-11-22T08:40:42;101416.03;;;-2.40;100.00
29569;BME280;16501;51.462;14.346;2023-11-22T08:43:07;101452.38;;;-2.15;100.00
29569;BME280;16501;51.462;14.346;2023-11-22T08:45:32;101454.38;;;-1.96;100.00
29569;BME280;16501;51.462;14.346;2023-11-22T08:47:58;101453.28;;;-1.92;100.00
29569;BME280;16501;51.462;14.346;2023-11-22T08:50:24;101464.19;;;-1.95;100.00
29569;BME280;16501;51.462;14.346;2023-11-22T08:52:49;101439.25;;;-1.86;100.00
29569;BME280;16501;51.462;14.346;2023-11-22T08:55:18;101431.59;;;-2.13;100.00
29569;BME280;16501;51.462;14.346;2023-11-22T08:57:47;101451.34;;;-1.91;100.00
29569;BME280;16501;51.462;14.346;2023-11-22T09:00:12;101444.63;;;-2.10;100.00
29569;BME280;16501;51.462;14.346;2023-11-22T09:02:39;101452.75;;;-1.97;100.00
29569;BME280;16501;51.462;14.346;2023-11-22T09:05:06;101471.78;;;-1.73;100.00
29569;BME280;16501;51.462;14.346;2023-11-22T09:07:33;101465.47;;;-1.73;100.00
29569;BME280;16501;51.462;14.346;2023-11-22T09:10:00;101412.47;;;-2.25;100.00
29569;BME280;16501;51.462;14.346;2023-11-22T09:12:25;101486.19;;;-1.79;100.00
29569;BME280;16501;51.462;14.346;2023-11-22T09:14:52;101475.53;;;-1.81;100.00
29569;BME280;16501;51.462;14.346;2023-11-22T09:17:18;101482.97;;;-1.81;100.00
29569;BME280;16501;51.462;14.346;2023-11-22T09:19:43;101462.63;;;-1.96;100.00
29569;BME280;16501;51.462;14.346;2023-11-22T09:22:08;101488.47;;;-1.81;100.00
29569;BME280;16501;51.462;14.346;2023-11-22T09:24:35;101497.97;;;-1.79;100.00
29569;BME280;16501;51.462;14.346;2023-11-22T09:27:02;101503.56;;;-1.75;100.00
29569;BME280;16501;51.462;14.346;2023-11-22T09:29:30;101504.34;;;-1.75;100.00
29569;BME280;16501;51.462;14.346;2023-11-22T09:31:55;101450.38;;;-1.99;100.00
29569;BME280;16501;51.462;14.346;2023-11-22T09:34:21;101481.19;;;-1.74;100.00
29569;BME280;16501;51.462;14.346;2023-11-22T09:36:46;101462.06;;;-1.86;100.00
29569;BME280;16501;51.462;14.346;2023-11-22T09:39:12;101453.69;;;-1.74;100.00
29569;BME280;16501;51.462;14.346;2023-11-22T09:41:37;101441.91;;;-1.74;100.00
29569;BME280;16501;51.462;14.346;2023-11-22T09:44:04;101452.78;;;-1.62;100.00
29569;BME280;16501;51.462;14.346;2023-11-22T09:46:30;101459.13;;;-1.77;100.00
29569;BME280;16501;51.462;14.346;2023-11-22T09:48:59;101459.00;;;-1.65;100.00
29569;BME280;16501;51.462;14.346;2023-11-22T09:51:29;101465.16;;;-1.52;100.00
29569;BME280;16501;51.462;14.346;2023-11-22T09:54:01;101469.50;;;-1.31;100.00
29569;BME280;16501;51.462;14.346;2023-11-22T09:56:32;101440.59;;;-1.61;100.00
29569;BME280;16501;51.462;14.346;2023-11-22T09:58:59;101474.50;;;-1.18;100.00
29569;BME280;16501;51.462;14.346;2023-11-22T10:01:27;101460.25;;;-1.23;100.00
29569;BME280;16501;51.462;14.346;2023-11-22T10:04:01;101455.41;;;-1.30;100.00
29569;BME280;16501;51.462;14.346;2023-11-22T10:06:27;101479.81;;;-1.28;100.00
29569;BME280;16501;51.462;14.346;2023-11-22T10:08:58;101473.28;;;-1.40;100.00
29569;BME280;16501;51.462;14.346;2023-11-22T10:11:23;101479.09;;;-1.25;100.00
29569;BME280;16501;51.462;14.346;2023-11-22T10:13:50;101475.22;;;-1.21;100.00
29569;BME280;16501;51.462;14.346;2023-11-22T10:16:17;101470.50;;;-1.20;100.00
29569;BME280;16501;51.462;14.346;2023-11-22T10:18:45;101480.16;;;-1.10;100.00
29569;BME280;16501;51.462;14.346;2023-11-22T10:21:29;101485.72;;;-1.07;100.00
29569;BME280;16501;51.462;14.346;2023-11-22T10:24:01;101469.66;;;-0.39;100.00
29569;BME280;16501;51.462;14.346;2023-11-22T10:26:27;101459.84;;;0.40;100.00
29569;BME280;16501;51.462;14.346;2023-11-22T10:28:54;101445.63;;;-0.15;100.00
29569;BME280;16501;51.462;14.346;2023-11-22T10:31:20;101460.47;;;-0.47;100.00
29569;BME280;16501;51.462;14.346;2023-11-22T10:33:49;101458.81;;;-0.74;100.00
29569;BME280;16501;51.462;14.346;2023-11-22T10:36:15;101451.50;;;-0.86;100.00
29569;BME280;16501;51.462;14.346;2023-11-22T10:38:45;101460.41;;;-1.16;100.00
29569;BME280;16501;51.462;14.346;2023-11-22T10:41:11;101441.25;;;-1.09;100.00
29569;BME280;16501;51.462;14.346;2023-11-22T10:43:38;101448.06;;;-1.03;100.00
29569;BME280;16501;51.462;14.346;2023-11-22T10:46:04;101435.31;;;-1.11;100.00
29569;BME280;16501;51.462;14.346;2023-11-22T10:48:32;101439.66;;;-1.10;100.00
29569;BME280;16501;51.462;14.346;2023-11-22T10:51:00;101403.03;;;-1.34;100.00
29569;BME280;16501;51.462;14.346;2023-11-22T10:53:43;101446.53;;;-1.00;100.00
29569;BME280;16501;51.462;14.346;2023-11-22T10:56:15;101450.22;;;-0.92;100.00
29569;BME280;16501;51.462;14.346;2023-11-22T10:58:56;101445.72;;;-0.81;100.00
29569;BME280;16501;51.462;14.346;2023-11-22T11:01:26;101464.44;;;-0.67;100.00
29569;BME280;16501;51.462;14.346;2023-11-22T11:04:08;101486.47;;;-0.90;100.00
29569;BME280;16501;51.462;14.346;2023-11-22T11:06:35;101476.53;;;-0.95;100.00
29569;BME280;16501;51.462;14.346;2023-11-22T11:09:02;101453.19;;;-1.01;100.00
29569;BME280;16501;51.462;14.346;2023-11-22T11:11:33;101474.13;;;-0.97;100.00
29569;BME280;16501;51.462;14.346;2023-11-22T11:14:00;101509.34;;;-0.86;100.00
29569;BME280;16501;51.462;14.346;2023-11-22T11:16:27;101505.88;;;-0.83;100.00
29569;BME280;16501;51.462;14.346;2023-11-22T11:18:53;101506.16;;;-0.88;100.00
29569;BME280;16501;51.462;14.346;2023-11-22T11:21:19;101514.66;;;-0.97;100.00
29569;BME280;16501;51.462;14.346;2023-11-22T11:23:45;101501.38;;;-0.91;100.00
29569;BME280;16501;51.462;14.346;2023-11-22T11:26:18;101507.47;;;-1.02;100.00
29569;BME280;16501;51.462;14.346;2023-11-22T11:28:48;101520.66;;;-0.91;100.00
29569;BME280;16501;51.462;14.346;2023-11-22T11:31:14;101512.25;;;-0.99;100.00
29569;BME280;16501;51.462;14.346;2023-11-22T11:36:25;101515.00;;;-0.99;100.00
29569;BME280;16501;51.462;14.346;2023-11-22T11:38:52;101514.25;;;-0.76;100.00
29569;BME280;16501;51.462;14.346;2023-11-22T11:41:25;101485.06;;;-0.81;100.00
29569;BME280;16501;51.462;14.346;2023-11-22T11:43:50;101491.88;;;-0.74;100.00
29569;BME280;16501;51.462;14.346;2023-11-22T11:46:16;101518.94;;;-0.57;100.00
29569;BME280;16501;51.462;14.346;2023-11-22T11:48:47;101528.44;;;-0.54;100.00
29569;BME280;16501;51.462;14.346;2023-11-22T11:51:14;101517.16;;;-0.69;100.00
29569;BME280;16501;51.462;14.346;2023-11-22T11:53:40;101515.91;;;-0.52;100.00
29569;BME280;16501;51.462;14.346;2023-11-22T11:56:05;101494.22;;;0.20;100.00
29569;BME280;16501;51.462;14.346;2023-11-22T11:58:32;101507.91;;;0.12;100.00
29569;BME280;16501;51.462;14.346;2023-11-22T12:00:58;101484.22;;;-0.15;100.00
29569;BME280;16501;51.462;14.346;2023-11-22T12:03:23;101496.22;;;-0.04;100.00
29569;BME280;16501;51.462;14.346;2023-11-22T12:05:49;101484.28;;;-0.12;100.00
29569;BME280;16501;51.462;14.346;2023-11-22T12:08:14;101486.88;;;0.31;100.00
29569;BME280;16501;51.462;14.346;2023-11-22T12:10:41;101462.34;;;0.52;100.00
29569;BME280;16501;51.462;14.346;2023-11-22T12:13:06;101457.00;;;0.67;100.00
29569;BME280;16501;51.462;14.346;2023-11-22T12:15:33;101448.81;;;0.74;100.00
29569;BME280;16501;51.462;14.346;2023-11-22T12:17:58;101446.13;;;0.81;100.00
29569;BME280;16501;51.462;14.346;2023-11-22T12:20:24;101430.59;;;0.69;100.00
29569;BME280;16501;51.462;14.346;2023-11-22T12:22:51;101410.66;;;0.49;99.42
29569;BME280;16501;51.462;14.346;2023-11-22T12:25:17;101440.78;;;0.62;100.00
29569;BME280;16501;51.462;14.346;2023-11-22T12:27:45;101436.34;;;0.53;98.70
29569;BME280;16501;51.462;14.346;2023-11-22T12:30:30;101444.03;;;0.71;98.23